Time;durP1;ratioP1;P1;durP2;ratioP2;P2;SDS_P1;SDS_P2;PMS_P1;PMS_P2;Temp;Humidity;BMP_temperature;BMP_pressure;BME280_temperature;BME280_humidity;BME280_pressure;Samples;Min_cycle;Max_cycle;Signal;HPM_P1;HPM_P2
2022/10/24 00:02:14;;;;;;;2.78;0.90;;;22.30;68.70;;;;;;4948777;28;21008;-13
2022/10/24 00:04:40;;;;;;;0.57;0.57;;;22.30;69.00;;;;;;4956561;28;20239;-19
2022/10/24 00:07:06;;;;;;;0.93;0.80;;;22.20;68.90;;;;;;4959448;28;20043;-12
2022/10/24 00:09:32;;;;;;;0.65;0.60;;;22.20;69.00;;;;;;4955514;28;20038;-13
2022/10/24 00:11:58;;;;;;;1.42;0.60;;;22.20;69.10;;;;;;4951766;28;20134;-13
2022/10/24 00:14:23;;;;;;;1.15;0.70;;;22.20;69.80;;;;;;4954582;28;20134;-12
2022/10/24 00:16:49;;;;;;;0.68;0.60;;;22.20;69.00;;;;;;4953793;28;20134;-13
2022/10/24 00:19:15;;;;;;;0.70;0.70;;;22.20;69.10;;;;;;4950930;28;20042;-13
2022/10/24 00:21:40;;;;;;;0.68;0.52;;;22.20;69.00;;;;;;4955686;28;20598;-13
2022/10/24 00:24:06;;;;;;;0.90;0.70;;;22.20;69.00;;;;;;4956917;28;20055;-13
2022/10/24 00:26:32;;;;;;;0.68;0.63;;;22.20;69.20;;;;;;4954906;28;20047;-13
2022/10/24 00:28:57;;;;;;;0.60;0.60;;;22.20;69.10;;;;;;4953518;28;20102;-13
2022/10/24 00:31:23;;;;;;;0.93;0.70;;;22.10;69.20;;;;;;4954444;28;20392;-13
2022/10/24 00:33:48;;;;;;;0.60;0.50;;;22.10;69.30;;;;;;4952515;28;20055;-14
2022/10/24 00:36:16;;;;;;;1.48;0.70;;;22.10;69.30;;;;;;4951193;28;20122;-12
2022/10/24 00:38:41;;;;;;;0.70;0.50;;;22.10;69.30;;;;;;4954030;28;20039;-13
2022/10/24 00:41:08;;;;;;;1.30;0.73;;;22.00;69.30;;;;;;4954627;28;20499;-14
2022/10/24 00:43:34;;;;;;;0.75;0.47;;;22.00;69.40;;;;;;4952384;28;20047;-12
2022/10/24 00:46:01;;;;;;;0.73;0.63;;;22.10;69.30;;;;;;4957608;28;20039;-13
2022/10/24 00:48:31;;;;;;;0.20;0.20;;;22.00;69.30;;;;;;4955282;28;20039;-13
2022/10/24 00:51:02;;;;;;;0.80;0.63;;;22.00;69.40;;;;;;4953997;28;20039;-13
2022/10/24 00:53:28;;;;;;;0.77;0.50;;;22.00;69.40;;;;;;4954422;28;20043;-21
2022/10/24 00:55:55;;;;;;;1.45;0.70;;;22.10;69.40;;;;;;4966424;28;20384;-12
2022/10/24 00:58:22;;;;;;;0.98;0.60;;;22.10;69.40;;;;;;4953072;28;20055;-17
2022/10/24 01:00:47;;;;;;;0.77;0.50;;;22.00;69.40;;;;;;4952351;28;20038;-12
2022/10/24 01:03:13;;;;;;;1.50;0.68;;;22.00;69.50;;;;;;4954769;28;20043;-29
2022/10/24 01:06:05;;;;;;;1.10;0.55;;;22.00;70.30;;;;;;4952485;28;20050;-13
2022/10/24 01:08:34;;;;;;;0.40;0.40;;;22.00;69.60;;;;;;4947474;28;20079;-15
2022/10/24 01:10:59;;;;;;;0.93;0.52;;;22.00;69.60;;;;;;4966641;28;20047;-13
2022/10/24 01:13:31;;;;;;;0.50;0.40;;;22.00;69.50;;;;;;4951660;28;20047;-14
2022/10/24 01:16:14;;;;;;;0.73;0.60;;;22.00;69.50;;;;;;4955567;28;20076;-13
2022/10/24 01:18:49;;;;;;;0.85;0.50;;;22.00;69.50;;;;;;4971532;28;20536;-13
2022/10/24 01:21:32;;;;;;;0.65;0.57;;;21.90;69.60;;;;;;4952607;28;20039;-13
2022/10/24 01:24:22;;;;;;;0.40;0.40;;;21.90;69.60;;;;;;4949189;28;20064;-12
2022/10/24 01:27:06;;;;;;;0.70;0.60;;;21.90;69.60;;;;;;4954151;28;20050;-12
2022/10/24 01:29:46;;;;;;;1.33;0.60;;;21.90;69.60;;;;;;4950145;28;20141;-14
2022/10/24 01:32:40;;;;;;;0.50;0.50;;;21.90;69.60;;;;;;4981775;28;20293;-13
2022/10/24 01:35:22;;;;;;;0.85;0.68;;;21.90;69.70;;;;;;4953450;28;20039;-13
2022/10/24 01:38:02;;;;;;;1.10;0.50;;;21.80;69.80;;;;;;4957291;28;20529;-13
2022/10/24 01:40:44;;;;;;;1.85;0.40;;;21.80;69.80;;;;;;4954545;28;20039;-13
2022/10/24 01:43:12;;;;;;;1.75;0.50;;;21.70;70.00;;;;;;4986260;28;20085;-13
2022/10/24 01:45:39;;;;;;;0.50;0.40;;;21.70;70.10;;;;;;4957433;28;20027;-13
2022/10/24 01:48:06;;;;;;;0.57;0.30;;;21.70;70.30;;;;;;4940351;28;20126;-13
2022/10/24 01:50:33;;;;;;;0.47;0.40;;;21.70;70.10;;;;;;4958151;28;20044;-12
2022/10/24 01:52:59;;;;;;;0.60;0.47;;;21.80;70.00;;;;;;4937351;28;20062;-12
2022/10/24 01:55:24;;;;;;;0.52;0.52;;;21.70;70.00;;;;;;4957410;28;20458;-19
2022/10/24 01:57:50;;;;;;;0.68;0.52;;;21.70;70.00;;;;;;4972736;28;20050;-12
2022/10/24 02:00:18;;;;;;;1.10;0.93;;;21.70;70.10;;;;;;4959231;28;20050;-12
2022/10/24 02:02:45;;;;;;;0.30;0.30;;;21.70;70.10;;;;;;4956963;28;20039;-14
2022/10/24 02:05:20;;;;;;;0.57;0.40;;;21.70;70.00;;;;;;4957551;28;20065;-13
2022/10/24 02:07:48;;;;;;;0.43;0.38;;;21.70;70.30;;;;;;4959892;28;20534;-12
2022/10/24 02:10:20;;;;;;;0.50;0.40;;;21.70;70.30;;;;;;4940304;28;20071;-13
2022/10/24 02:12:49;;;;;;;0.70;0.40;;;21.70;70.20;;;;;;4958553;28;20045;-12
2022/10/24 02:15:23;;;;;;;0.57;0.40;;;21.70;70.00;;;;;;4973436;28;20054;-13
2022/10/24 02:17:48;;;;;;;0.52;0.32;;;21.70;70.00;;;;;;4958308;28;20030;-13
2022/10/24 02:20:14;;;;;;;0.30;0.25;;;21.70;70.00;;;;;;4936015;28;20051;-13
2022/10/24 02:22:49;;;;;;;0.63;0.40;;;21.70;70.10;;;;;;4974651;28;20043;-13
2022/10/24 02:25:34;;;;;;;1.58;0.43;;;21.70;70.10;;;;;;4957678;28;20066;-13
2022/10/24 02:28:09;;;;;;;0.70;0.50;;;21.70;70.00;;;;;;4968642;28;20043;-12
2022/10/24 02:30:41;;;;;;;0.30;0.30;;;21.70;70.00;;;;;;4973595;28;20050;-12
2022/10/24 02:33:06;;;;;;;0.30;0.30;;;21.70;70.10;;;;;;4968326;28;20039;-13
2022/10/24 02:35:34;;;;;;;0.50;0.50;;;21.70;71.00;;;;;;4954530;28;20042;-13
2022/10/24 02:38:11;;;;;;;0.50;0.43;;;21.60;70.20;;;;;;4956259;28;20055;-12
2022/10/24 02:40:37;;;;;;;0.47;0.40;;;21.60;70.40;;;;;;4968809;28;20051;-13
2022/10/24 02:43:02;;;;;;;0.45;0.30;;;21.60;70.40;;;;;;4986965;28;20059;-12
2022/10/24 02:45:28;;;;;;;0.50;0.35;;;21.60;70.30;;;;;;4972470;28;20512;-13
2022/10/24 02:47:55;;;;;;;0.70;0.70;;;21.60;70.30;;;;;;4942439;28;20525;-14
2022/10/24 02:50:21;;;;;;;0.52;0.52;;;21.60;70.20;;;;;;4973707;28;20490;-12
2022/10/24 02:52:47;;;;;;;1.67;0.40;;;21.60;70.20;;;;;;4956814;28;20067;-13
2022/10/24 02:55:12;;;;;;;0.50;0.40;;;21.60;70.20;;;;;;4953611;28;20038;-13
2022/10/24 02:57:38;;;;;;;0.45;0.20;;;21.60;70.20;;;;;;4957675;28;20051;-13
2022/10/24 03:00:04;;;;;;;0.60;0.40;;;21.60;70.40;;;;;;4963433;28;20089;-13
2022/10/24 03:02:30;;;;;;;0.30;0.30;;;21.60;70.30;;;;;;4957891;28;20054;-14
2022/10/24 03:04:56;;;;;;;0.40;0.40;;;21.60;70.30;;;;;;4952805;28;20053;-12
2022/10/24 03:07:21;;;;;;;0.30;0.28;;;21.60;70.40;;;;;;4956776;28;20051;-13
2022/10/24 03:09:47;;;;;;;0.30;0.30;;;21.60;70.40;;;;;;4957890;28;20071;-13
2022/10/24 03:12:13;;;;;;;0.43;0.30;;;21.70;70.30;;;;;;4955868;28;20047;-12
2022/10/24 03:14:39;;;;;;;0.40;0.38;;;21.60;70.20;;;;;;4953242;28;20048;-18
2022/10/24 03:17:04;;;;;;;0.55;0.30;;;21.60;70.30;;;;;;4954737;28;20043;-12
2022/10/24 03:19:30;;;;;;;0.95;0.30;;;21.60;70.20;;;;;;4961863;28;20513;-12
2022/10/24 03:21:56;;;;;;;0.30;0.30;;;21.60;70.10;;;;;;4956541;28;20094;-29
2022/10/24 03:24:21;;;;;;;0.30;0.30;;;21.60;70.30;;;;;;4954721;28;20054;-13
2022/10/24 03:26:50;;;;;;;0.30;0.30;;;21.60;70.30;;;;;;4955249;28;20035;-12
2022/10/24 03:29:17;;;;;;;0.52;0.40;;;21.60;70.10;;;;;;4956521;28;20066;-13
2022/10/24 03:31:42;;;;;;;0.50;0.43;;;21.60;70.10;;;;;;4955567;28;20075;-13
2022/10/24 03:34:08;;;;;;;0.70;0.30;;;21.60;70.20;;;;;;4954520;28;20069;-13
2022/10/24 03:36:33;;;;;;;0.20;0.20;;;21.70;70.10;;;;;;4954548;28;20046;-14
2022/10/24 03:38:59;;;;;;;0.30;0.30;;;21.60;70.10;;;;;;4952629;28;20427;-12
2022/10/24 03:41:24;;;;;;;0.35;0.25;;;21.60;70.90;;;;;;4955644;28;20306;-13
2022/10/24 03:43:50;;;;;;;1.48;0.55;;;21.60;70.20;;;;;;4956472;28;20116;-12
2022/10/24 03:46:16;;;;;;;0.50;0.30;;;21.60;70.10;;;;;;4952767;28;20093;-16
2022/10/24 03:48:41;;;;;;;0.32;0.30;;;21.60;70.00;;;;;;4952856;28;20043;-12
2022/10/24 03:51:07;;;;;;;0.38;0.30;;;21.60;70.10;;;;;;4955379;28;20036;-13
2022/10/24 03:53:32;;;;;;;0.40;0.30;;;21.70;70.20;;;;;;4957765;28;20469;-13
2022/10/24 03:55:59;;;;;;;0.45;0.32;;;21.60;70.10;;;;;;4958221;28;20055;-13
2022/10/24 03:58:25;;;;;;;0.43;0.25;;;21.60;70.10;;;;;;4954376;28;20051;-13
2022/10/24 04:00:50;;;;;;;0.60;0.30;;;21.60;69.80;;;;;;4954793;28;20098;-13
2022/10/24 04:03:16;;;;;;;0.38;0.38;;;21.60;70.00;;;;;;4953446;28;20066;-12
2022/10/24 04:05:41;;;;;;;0.40;0.22;;;21.60;70.70;;;;;;4957005;28;20506;-18
2022/10/24 04:08:07;;;;;;;0.35;0.30;;;21.60;70.10;;;;;;4956208;28;20051;-13
2022/10/24 04:10:32;;;;;;;0.40;0.30;;;21.60;70.00;;;;;;4956416;28;20067;-22
2022/10/24 04:12:58;;;;;;;0.68;0.40;;;21.60;69.90;;;;;;4954705;28;20411;-14
2022/10/24 04:15:24;;;;;;;0.65;0.30;;;21.60;69.80;;;;;;4957050;28;20041;-13
2022/10/24 04:17:49;;;;;;;0.60;0.43;;;21.60;69.80;;;;;;4955206;28;20578;-13
2022/10/24 04:20:18;;;;;;;0.52;0.40;;;21.60;69.90;;;;;;4954866;28;20050;-13
2022/10/24 04:22:44;;;;;;;0.32;0.30;;;21.60;70.10;;;;;;4953775;28;20581;-13
2022/10/24 04:25:10;;;;;;;0.63;0.30;;;21.60;70.00;;;;;;4957688;28;20046;-13
2022/10/24 04:27:39;;;;;;;0.73;0.30;;;21.60;70.10;;;;;;4960353;28;20525;-13
2022/10/24 04:30:06;;;;;;;0.40;0.20;;;21.60;70.10;;;;;;4964725;28;20046;-12
2022/10/24 04:32:32;;;;;;;0.30;0.30;;;21.50;70.20;;;;;;4956094;28;20105;-12
2022/10/24 04:34:57;;;;;;;0.52;0.30;;;21.60;70.30;;;;;;4955203;28;20047;-13
2022/10/24 04:37:23;;;;;;;0.52;0.40;;;21.50;70.90;;;;;;4953752;28;20071;-13
2022/10/24 04:39:49;;;;;;;0.40;0.35;;;21.60;70.00;;;;;;4956011;28;20580;-13
2022/10/24 04:42:14;;;;;;;0.57;0.40;;;21.60;69.90;;;;;;4954384;28;20035;-13
2022/10/24 04:44:40;;;;;;;0.65;0.30;;;21.60;69.90;;;;;;4955704;28;20502;-13
2022/10/24 04:47:05;;;;;;;0.32;0.32;;;21.60;69.90;;;;;;4953599;28;20054;-12
2022/10/24 04:49:31;;;;;;;0.57;0.30;;;21.60;70.00;;;;;;4954508;28;20083;-12
2022/10/24 04:51:56;;;;;;;0.88;0.20;;;21.60;69.90;;;;;;4954840;28;20035;-13
2022/10/24 04:54:22;;;;;;;0.70;0.40;;;21.60;70.20;;;;;;4959650;28;20566;-13
2022/10/24 04:56:48;;;;;;;0.43;0.20;;;21.60;70.00;;;;;;4958237;28;20039;-13
2022/10/24 04:59:13;;;;;;;0.30;0.28;;;21.60;69.90;;;;;;4954248;28;20050;-13
2022/10/24 05:01:39;;;;;;;0.40;0.38;;;21.60;69.70;;;;;;4952355;28;20059;-12
2022/10/24 05:04:04;;;;;;;0.70;0.50;;;21.60;69.90;;;;;;4970139;28;20047;-21
2022/10/24 05:06:30;;;;;;;0.25;0.20;;;21.60;69.90;;;;;;4972483;28;20458;-13
2022/10/24 05:08:55;;;;;;;0.43;0.40;;;21.60;70.00;;;;;;4953607;28;20133;-15
2022/10/24 05:11:21;;;;;;;0.30;0.20;;;21.60;69.80;;;;;;4952535;28;20064;-13
2022/10/24 05:13:46;;;;;;;0.20;0.20;;;21.60;70.70;;;;;;4952554;28;20522;-13
2022/10/24 05:16:12;;;;;;;0.60;0.40;;;21.60;69.80;;;;;;4956838;28;20094;-23
2022/10/24 05:18:38;;;;;;;0.60;0.30;;;21.60;69.80;;;;;;4956576;28;20031;-12
2022/10/24 05:21:03;;;;;;;0.40;0.40;;;21.60;69.80;;;;;;4950940;28;20066;-13
2022/10/24 05:23:29;;;;;;;0.40;0.30;;;21.60;69.80;;;;;;4949501;28;20185;-12
2022/10/24 05:25:54;;;;;;;0.35;0.22;;;21.50;70.00;;;;;;4947370;28;20616;-18
2022/10/24 05:28:20;;;;;;;0.88;0.35;;;21.50;70.00;;;;;;4949712;28;20043;-13
2022/10/24 05:30:45;;;;;;;0.38;0.20;;;21.50;70.00;;;;;;4954413;28;20130;-13
2022/10/24 05:33:11;;;;;;;0.55;0.40;;;21.60;70.20;;;;;;4950449;28;20040;-12
2022/10/24 05:35:37;;;;;;;0.70;0.40;;;21.60;69.80;;;;;;4952210;28;20067;-13
2022/10/24 05:38:03;;;;;;;0.50;0.40;;;21.50;70.10;;;;;;4951695;28;20047;-13
2022/10/24 05:40:28;;;;;;;0.30;0.30;;;21.50;70.10;;;;;;4952390;28;20507;-12
2022/10/24 05:42:54;;;;;;;0.55;0.40;;;21.50;70.00;;;;;;4948949;28;20556;-12
2022/10/24 05:45:19;;;;;;;0.55;0.30;;;21.60;70.10;;;;;;4951025;28;20047;-12
2022/10/24 05:47:45;;;;;;;0.30;0.30;;;21.80;69.80;;;;;;4952388;28;20058;-13
2022/10/24 05:50:10;;;;;;;0.50;0.30;;;21.70;69.80;;;;;;4953460;28;20335;-13
2022/10/24 05:52:36;;;;;;;0.95;0.45;;;21.60;70.40;;;;;;4953308;28;20134;-12
2022/10/24 05:55:04;;;;;;;1.60;0.45;;;21.60;70.80;;;;;;4600766;28;10000229;-12
2022/10/24 05:57:29;;;;;;;0.30;0.28;;;21.60;70.30;;;;;;4940914;28;20095;-13
2022/10/24 05:59:55;;;;;;;0.82;0.50;;;21.70;72.20;;;;;;4974592;28;20407;-20
2022/10/24 06:02:20;;;;;;;0.30;0.20;;;21.60;71.00;;;;;;4947179;28;20584;-12
2022/10/24 06:04:47;;;;;;;0.35;0.30;;;21.60;71.60;;;;;;4950606;28;20093;-13
2022/10/24 06:07:12;;;;;;;0.45;0.30;;;21.60;71.50;;;;;;4951151;28;20027;-13
2022/10/24 06:09:39;;;;;;;0.73;0.43;;;21.60;71.70;;;;;;4949854;28;20027;-12
2022/10/24 06:12:07;;;;;;;1.67;0.47;;;21.60;71.30;;;;;;4944391;28;20066;-13
2022/10/24 06:14:33;;;;;;;0.95;0.30;;;21.60;71.40;;;;;;4948376;28;20153;-13
2022/10/24 06:16:58;;;;;;;0.50;0.30;;;21.70;70.90;;;;;;4947708;28;20028;-13
2022/10/24 06:19:24;;;;;;;0.52;0.40;;;21.80;70.80;;;;;;4954208;28;20030;-12
2022/10/24 06:21:49;;;;;;;0.52;0.38;;;21.80;71.30;;;;;;4954017;28;20119;-13
2022/10/24 06:24:15;;;;;;;1.10;0.40;;;21.70;71.40;;;;;;4958569;28;20529;-13
2022/10/24 06:26:41;;;;;;;1.38;0.32;;;21.70;72.80;;;;;;4954778;28;20039;-13
2022/10/24 06:29:06;;;;;;;1.15;0.43;;;21.70;72.00;;;;;;4952569;28;20526;-13
2022/10/24 06:31:34;;;;;;;1.10;0.45;;;21.70;72.20;;;;;;4955526;28;20031;-12
2022/10/24 06:34:00;;;;;;;1.52;0.65;;;21.60;72.20;;;;;;4951388;28;20042;-12
2022/10/24 06:36:25;;;;;;;1.45;0.60;;;21.60;72.60;;;;;;4952875;28;20454;-31
2022/10/24 06:38:52;;;;;;;0.57;0.40;;;21.70;72.00;;;;;;4957038;28;20581;-32
2022/10/24 06:41:18;;;;;;;2.47;0.50;;;21.80;71.70;;;;;;4953322;28;20494;-30
2022/10/24 06:43:43;;;;;;;0.77;0.57;;;22.00;71.00;;;;;;4953577;28;20038;-29
2022/10/24 06:46:10;;;;;;;0.70;0.63;;;22.10;71.00;;;;;;4956066;28;20457;-35
2022/10/24 06:48:35;;;;;;;2.50;1.92;;;22.10;70.60;;;;;;4952965;28;20035;-32
2022/10/24 06:51:01;;;;;;;3.42;2.63;;;22.20;70.60;;;;;;4953974;28;20037;-30
2022/10/24 06:53:27;;;;;;;3.20;2.90;;;22.20;70.60;;;;;;4952992;28;20030;-34
2022/10/24 06:55:52;;;;;;;3.03;2.72;;;22.20;70.80;;;;;;4957007;28;20077;-36
2022/10/24 06:58:18;;;;;;;2.70;2.15;;;22.10;71.50;;;;;;4951166;28;20051;-33
2022/10/24 07:00:43;;;;;;;2.22;1.35;;;21.90;72.60;;;;;;4952490;28;20055;-32
2022/10/24 07:03:15;;;;;;;1.77;1.58;;;21.80;72.80;;;;;;4956978;28;20497;-33
2022/10/24 07:05:40;;;;;;;1.38;1.27;;;21.70;73.20;;;;;;4983338;28;20035;-32
2022/10/24 07:08:06;;;;;;;3.15;1.60;;;21.70;73.10;;;;;;4955186;28;20027;-38
2022/10/24 07:10:31;;;;;;;3.15;1.35;;;21.80;73.60;;;;;;4950989;28;20035;-38
2022/10/24 07:12:57;;;;;;;1.30;1.10;;;21.80;72.80;;;;;;4956462;28;20039;-30
2022/10/24 07:15:23;;;;;;;2.33;0.87;;;21.70;73.90;;;;;;4609634;28;10000895;-35
2022/10/24 07:17:48;;;;;;;1.42;1.15;;;21.70;73.50;;;;;;4954522;28;20015;-34
2022/10/24 07:20:14;;;;;;;1.70;0.95;;;21.70;74.50;;;;;;4953563;28;20027;-30
2022/10/24 07:22:40;;;;;;;1.50;0.90;;;21.70;73.80;;;;;;4952152;28;20122;-32
2022/10/24 07:25:06;;;;;;;1.85;1.10;;;21.70;73.70;;;;;;4951456;28;22009;-28
2022/10/24 07:27:32;;;;;;;0.85;0.73;;;21.60;73.70;;;;;;4951769;28;20038;-32
2022/10/24 07:29:57;;;;;;;0.80;0.73;;;21.70;73.80;;;;;;4957021;28;20023;-34
2022/10/24 07:32:23;;;;;;;1.08;0.95;;;21.60;73.60;;;;;;4952321;28;20031;-33
2022/10/24 07:34:48;;;;;;;0.93;0.77;;;21.60;73.60;;;;;;4955614;28;20035;-35
2022/10/24 07:37:15;;;;;;;1.35;1.10;;;21.70;73.60;;;;;;4948371;28;20379;-32
2022/10/24 07:39:40;;;;;;;3.33;1.00;;;21.60;73.50;;;;;;4953147;28;20047;-32
2022/10/24 07:42:06;;;;;;;1.98;1.02;;;21.70;73.80;;;;;;4952218;28;20178;-31
2022/10/24 07:44:31;;;;;;;1.10;0.75;;;21.70;73.50;;;;;;4952514;28;20694;-35
2022/10/24 07:46:57;;;;;;;0.88;0.70;;;21.70;73.60;;;;;;4949963;28;20759;-30
2022/10/24 07:49:23;;;;;;;1.83;0.73;;;21.70;74.10;;;;;;4953143;28;20031;-36
2022/10/24 07:51:48;;;;;;;1.05;0.93;;;21.80;72.80;;;;;;4955444;28;20031;-36
2022/10/24 07:54:14;;;;;;;1.25;0.70;;;21.90;73.40;;;;;;4958674;28;20051;-29
2022/10/24 07:56:39;;;;;;;1.92;0.70;;;21.80;72.70;;;;;;4955770;28;20086;-28
2022/10/24 07:59:05;;;;;;;1.67;0.60;;;21.70;73.30;;;;;;4955565;28;20043;-29
2022/10/24 08:01:31;;;;;;;0.90;0.70;;;21.70;73.50;;;;;;4956096;28;20065;-32
2022/10/24 08:03:56;;;;;;;1.00;0.63;;;21.60;73.60;;;;;;4958465;28;20047;-39
2022/10/24 08:06:24;;;;;;;2.15;0.65;;;21.60;73.70;;;;;;4953215;28;20023;-31
2022/10/24 08:08:50;;;;;;;1.45;0.77;;;21.60;73.70;;;;;;4954655;28;20023;-32
2022/10/24 08:11:18;;;;;;;2.22;0.60;;;21.50;73.80;;;;;;4955372;28;20585;-31
2022/10/24 08:13:43;;;;;;;1.13;0.63;;;21.60;74.60;;;;;;4959299;28;20027;-32
2022/10/24 08:16:11;;;;;;;0.85;0.63;;;21.60;73.80;;;;;;4952390;28;20035;-33
2022/10/24 08:18:37;;;;;;;0.85;0.60;;;21.50;73.80;;;;;;4958561;28;20062;-34
2022/10/24 08:21:04;;;;;;;1.73;1.10;;;21.50;73.80;;;;;;4956001;28;20065;-38
2022/10/24 08:23:30;;;;;;;0.93;0.52;;;21.50;73.80;;;;;;4956022;28;20071;-34
2022/10/24 08:25:55;;;;;;;2.35;0.70;;;21.50;73.80;;;;;;4956196;28;20497;-31
2022/10/24 08:28:22;;;;;;;1.20;0.60;;;21.50;73.80;;;;;;4955371;28;20028;-31
2022/10/24 08:31:11;;;;;;;9.60;0.60;;;21.50;73.60;;;;;;4957438;28;20027;-35
2022/10/24 08:33:37;;;;;;;2.53;0.50;;;21.50;73.60;;;;;;4958056;28;20030;-33
2022/10/24 08:36:12;;;;;;;0.80;0.63;;;21.60;73.30;;;;;;4953090;28;20019;-34
2022/10/24 08:38:38;;;;;;;0.80;0.60;;;21.60;73.30;;;;;;4953913;28;20019;-35
2022/10/24 08:41:03;;;;;;;0.82;0.55;;;21.60;74.00;;;;;;4954572;28;20336;-28
2022/10/24 08:43:29;;;;;;;1.42;0.70;;;21.50;73.20;;;;;;4953970;28;22103;-34
2022/10/24 08:46:17;;;;;;;1.67;0.68;;;21.50;73.30;;;;;;4952906;28;20036;-34
2022/10/24 08:48:49;;;;;;;1.17;0.50;;;21.50;73.20;;;;;;4974652;28;20059;-29
2022/10/24 08:51:39;;;;;;;0.95;0.52;;;21.60;73.30;;;;;;4953361;28;20070;-30
2022/10/24 08:54:04;;;;;;;0.68;0.50;;;21.60;73.10;;;;;;4986271;28;20023;-31
2022/10/24 08:56:31;;;;;;;1.00;0.70;;;21.50;73.10;;;;;;4939434;28;20030;-32
2022/10/24 08:58:58;;;;;;;0.45;0.40;;;21.60;73.20;;;;;;4957194;28;20113;-31
2022/10/24 09:02:14;;;;;;;1.20;0.50;;;21.60;73.00;;;;;;4953214;28;20102;-34
2022/10/24 09:04:44;;;;;;;0.65;0.38;;;21.50;73.10;;;;;;4945194;28;20030;-30
2022/10/24 09:07:15;;;;;;;0.80;0.50;;;21.50;73.20;;;;;;4937015;28;20553;-31
2022/10/24 09:09:45;;;;;;;0.68;0.47;;;21.50;73.80;;;;;;4941068;28;20048;-36
2022/10/24 09:12:12;;;;;;;0.50;0.47;;;21.50;73.10;;;;;;4940267;28;20027;-29
2022/10/24 09:14:42;;;;;;;1.35;0.60;;;21.50;73.00;;;;;;4951968;28;20027;-34
2022/10/24 09:17:31;;;;;;;1.88;0.50;;;21.50;72.90;;;;;;4954113;28;20094;-36
2022/10/24 09:20:06;;;;;;;0.75;0.40;;;21.50;72.80;;;;;;4955280;28;20138;-31
2022/10/24 09:22:33;;;;;;;0.90;0.77;;;21.60;73.00;;;;;;4935777;28;20035;-32
2022/10/24 09:25:04;;;;;;;0.60;0.60;;;21.60;72.90;;;;;;4955547;28;20065;-34
2022/10/24 09:27:32;;;;;;;1.00;0.50;;;21.60;72.90;;;;;;4955022;28;20051;-28
2022/10/24 09:29:58;;;;;;;0.60;0.43;;;21.60;72.80;;;;;;4937760;28;20040;-37
2022/10/24 09:32:25;;;;;;;0.45;0.32;;;21.60;72.70;;;;;;4936063;28;20541;-32
2022/10/24 09:34:51;;;;;;;0.80;0.50;;;21.70;72.60;;;;;;4936192;28;20040;-33
2022/10/24 09:37:37;;;;;;;0.88;0.43;;;21.60;72.60;;;;;;4951459;28;20030;-34
2022/10/24 09:40:32;;;;;;;0.80;0.40;;;21.60;72.80;;;;;;4958143;28;20050;-41
2022/10/24 09:43:13;;;;;;;0.90;0.40;;;21.70;73.10;;;;;;4958935;28;20038;-32
2022/10/24 09:45:39;;;;;;;0.60;0.60;;;21.70;73.00;;;;;;4959425;28;20032;-36
2022/10/24 09:48:25;;;;;;;1.10;0.60;;;21.70;73.00;;;;;;4956894;28;20031;-30
2022/10/24 09:50:51;;;;;;;0.63;0.40;;;21.70;72.80;;;;;;4941597;28;20126;-32
2022/10/24 09:53:31;;;;;;;1.45;0.57;;;21.70;72.70;;;;;;4972313;28;20114;-30
2022/10/24 09:55:58;;;;;;;0.98;0.50;;;21.70;72.80;;;;;;4955573;28;20043;-31
2022/10/24 09:58:31;;;;;;;0.82;0.40;;;21.70;72.40;;;;;;4956397;28;20040;-32
2022/10/24 10:01:05;;;;;;;0.32;0.32;;;21.70;72.60;;;;;;4960949;28;20042;-34
2022/10/24 10:03:31;;;;;;;1.00;0.60;;;21.70;72.70;;;;;;4956474;28;20043;-30
2022/10/24 10:06:00;;;;;;;1.02;0.43;;;21.70;73.60;;;;;;4953716;28;20506;-32
2022/10/24 10:08:30;;;;;;;0.40;0.40;;;21.70;72.90;;;;;;4987971;28;20586;-39
2022/10/24 10:11:01;;;;;;;1.60;0.65;;;21.70;72.80;;;;;;4959128;28;20016;-34
2022/10/24 10:13:27;;;;;;;0.73;0.55;;;21.70;72.50;;;;;;4960145;28;20110;-33
2022/10/24 10:15:57;;;;;;;0.70;0.45;;;21.70;72.10;;;;;;4291608;28;10000765;-35
2022/10/24 10:18:44;;;;;;;0.57;0.45;;;21.70;72.40;;;;;;4991444;28;20534;-33
2022/10/24 10:21:20;;;;;;;0.80;0.40;;;21.80;72.20;;;;;;4957597;28;20030;-30
2022/10/24 10:23:49;;;;;;;0.88;0.45;;;21.80;71.60;;;;;;4953929;28;20038;-34
2022/10/24 10:26:16;;;;;;;0.32;0.32;;;21.90;71.20;;;;;;4955542;28;20539;-32
2022/10/24 10:28:55;;;;;;;0.68;0.47;;;21.90;70.90;;;;;;4948920;28;20406;-34
2022/10/24 10:31:46;;;;;;;0.73;0.60;;;21.90;70.90;;;;;;4954337;28;20494;-37
2022/10/24 10:34:31;;;;;;;0.80;0.45;;;21.90;70.80;;;;;;4953267;28;20031;-28
2022/10/24 10:37:26;;;;;;;0.60;0.30;;;21.90;70.70;;;;;;4953094;28;20038;-28
2022/10/24 10:40:10;;;;;;;1.10;0.60;;;22.00;70.50;;;;;;4954300;28;20047;-29
2022/10/24 10:43:11;;;;;;;0.40;0.28;;;22.00;70.50;;;;;;4967474;28;20031;-31
2022/10/24 10:45:45;;;;;;;0.68;0.30;;;22.00;70.50;;;;;;4949449;28;20087;-33
2022/10/24 10:48:40;;;;;;;0.63;0.30;;;22.00;70.50;;;;;;4950225;28;20028;-30
2022/10/24 10:51:37;;;;;;;0.55;0.40;;;22.00;70.50;;;;;;4965402;28;20414;-32
2022/10/24 10:54:18;;;;;;;0.55;0.30;;;22.00;70.70;;;;;;4952640;28;20047;-31
2022/10/24 10:56:52;;;;;;;0.40;0.25;;;22.00;70.70;;;;;;4952754;28;20023;-27
2022/10/24 10:59:39;;;;;;;0.43;0.30;;;21.90;70.60;;;;;;4972746;28;20080;-34
2022/10/24 11:02:38;;;;;;;0.30;0.30;;;21.90;70.70;;;;;;4955102;28;20508;-33
2022/10/24 11:05:53;;;;;;;1.13;0.35;;;21.90;70.60;;;;;;4952948;28;20494;-30
2022/10/24 11:08:33;;;;;;;0.40;0.40;;;22.00;70.70;;;;;;4953439;28;20047;-30
2022/10/24 11:11:02;;;;;;;0.45;0.40;;;21.90;70.70;;;;;;4952402;28;20105;-35
2022/10/24 11:13:32;;;;;;;0.50;0.30;;;22.00;70.70;;;;;;4969722;28;20197;-33
2022/10/24 11:15:59;;;;;;;1.23;0.32;;;22.00;70.80;;;;;;4970556;28;20043;-33
2022/10/24 11:18:28;;;;;;;2.08;0.30;;;21.90;70.80;;;;;;4968781;28;20055;-29
2022/10/24 11:21:04;;;;;;;0.63;0.30;;;21.90;70.70;;;;;;4970824;28;20066;-34
2022/10/24 11:23:38;;;;;;;1.10;0.50;;;21.90;70.80;;;;;;4951565;28;20031;-39
2022/10/24 11:26:09;;;;;;;1.10;0.20;;;21.90;70.90;;;;;;4969530;28;20502;-28
2022/10/24 11:28:54;;;;;;;1.33;0.50;;;21.90;71.20;;;;;;4951500;28;20282;-30
2022/10/24 11:31:31;;;;;;;;;;;21.90;70.80;;;;;;4950604;28;20031;-31
2022/10/24 11:34:03;;;;;;;0.40;0.20;;;22.00;70.90;;;;;;4953099;28;19918;-31
2022/10/24 11:36:46;;;;;;;0.38;0.20;;;22.00;70.80;;;;;;4951906;28;20110;-28
2022/10/24 11:39:24;;;;;;;0.40;0.40;;;22.10;70.60;;;;;;4953788;28;20035;-31
2022/10/24 11:42:09;;;;;;;0.65;0.30;;;22.50;69.40;;;;;;4948280;28;20030;-31
2022/10/24 11:44:38;;;;;;;0.45;0.30;;;22.50;69.40;;;;;;4953737;28;20035;-31
2022/10/24 11:47:26;;;;;;;0.60;0.35;;;22.50;69.30;;;;;;4972855;28;20023;-27
2022/10/24 11:50:05;;;;;;;1.52;0.30;;;22.70;68.50;;;;;;4955964;28;20063;-35
2022/10/24 11:52:34;;;;;;;0.40;0.30;;;22.90;67.70;;;;;;4945861;28;20038;-32
2022/10/24 11:55:23;;;;;;;0.60;0.40;;;22.90;67.60;;;;;;4940279;28;20022;-28
2022/10/24 11:57:51;;;;;;;0.32;0.30;;;22.90;67.50;;;;;;4941900;28;20435;-31
2022/10/24 12:00:20;;;;;;;0.57;0.30;;;22.80;68.20;;;;;;4956459;28;20035;-32
2022/10/24 12:03:07;;;;;;;0.60;0.50;;;22.90;68.60;;;;;;4954342;28;20090;-27
2022/10/24 12:05:44;;;;;;;0.68;0.30;;;22.70;68.30;;;;;;4958781;28;20581;-30
2022/10/24 12:08:16;;;;;;;1.23;0.40;;;22.60;68.60;;;;;;4954406;28;20099;-31
2022/10/24 12:11:03;;;;;;;1.25;0.55;;;22.40;69.10;;;;;;4956422;28;20054;-30
2022/10/24 12:13:44;;;;;;;0.40;0.30;;;22.30;69.70;;;;;;4953872;28;20039;-31
2022/10/24 12:16:28;;;;;;;0.50;0.30;;;22.30;69.80;;;;;;4957115;28;20505;-32
2022/10/24 12:18:57;;;;;;;;;;;22.40;69.60;;;;;;4957278;28;20032;-29
2022/10/24 12:21:27;;;;;;;0.50;0.20;;;22.20;69.80;;;;;;4958929;28;20459;-37
2022/10/24 12:23:54;;;;;;;0.40;0.40;;;22.30;70.80;;;;;;4957542;28;20042;-35
2022/10/24 12:26:27;;;;;;;0.45;0.30;;;22.20;70.00;;;;;;4955213;28;20034;-37
2022/10/24 12:28:57;;;;;;;0.65;0.40;;;22.20;70.20;;;;;;4988121;28;20031;-32
2022/10/24 12:31:30;;;;;;;0.47;0.47;;;22.10;70.20;;;;;;4973683;28;20046;-30
2022/10/24 12:34:14;;;;;;;0.90;0.70;;;22.20;70.20;;;;;;4939917;28;20093;-34
2022/10/24 12:37:01;;;;;;;1.27;0.40;;;22.20;70.20;;;;;;4954985;28;20038;-32
2022/10/24 12:39:32;;;;;;;0.88;0.40;;;22.20;70.00;;;;;;4956573;28;20037;-37
2022/10/24 12:41:58;;;;;;;0.60;0.40;;;22.20;70.00;;;;;;4957152;28;20031;-33
2022/10/24 12:44:33;;;;;;;0.28;0.20;;;22.20;69.90;;;;;;4957365;28;20106;-36
2022/10/24 12:46:59;;;;;;;0.50;0.28;;;22.30;69.90;;;;;;4954755;28;20035;-34
2022/10/24 12:49:31;;;;;;;0.90;0.20;;;22.20;69.80;;;;;;4955779;28;20022;-36
2022/10/24 12:51:57;;;;;;;0.40;0.20;;;22.20;69.80;;;;;;4955997;28;20512;-37
2022/10/24 12:54:42;;;;;;;0.50;0.28;;;22.30;69.90;;;;;;4957001;28;20102;-32
2022/10/24 12:57:10;;;;;;;0.50;0.32;;;22.20;69.80;;;;;;4990397;28;20030;-31
2022/10/24 12:59:47;;;;;;;0.40;0.22;;;22.30;69.80;;;;;;4955101;28;20196;-33
2022/10/24 13:02:12;;;;;;;0.38;0.35;;;22.30;69.80;;;;;;4942262;28;20019;-40
2022/10/24 13:04:46;;;;;;;0.45;0.20;;;22.30;69.80;;;;;;4956447;28;20038;-38